Terminal Aerodrome Forecast
Issued by NWS Upton, NY

Home | Current Version | Previous Version | Text Only | Print | Product List | Glossary On
Versions: 1 2 3 4 5 6 7 8 9 10 11 12 13 14 15 16 17 18 19 20 21 22 23 24 25 26 27 28 29 30 31 32 33 34 35
000
FTUS41 KOKX 281120
TAFEWR
TAF
KEWR 281120Z 2812/2918 06005KT 3SM BR OVC006
      TEMPO 2812/2815 1 1/2SM BR OVC004
     FM281500 07004KT 1 1/2SM BR OVC008
     FM281900 06004KT 3SM -RA BR OVC010
     FM290000 03004KT 3SM -RA BR OVC008
     FM290400 36006KT 5SM BR OVC012
     FM290800 34007KT P6SM BKN025
     FM291500 34014KT P6SM SCT025=

USA.gov is the U.S. government's official web portal to all federal, state and local government web resources and services.